sensor_id;sensor_type;location;lat;lon;timestamp;P1;durP1;ratioP1;P2;durP2;ratioP2
34433;SDS011;34290;48.562;13.384;2023-05-10T00:02:11;13.00;;;5.07;;
34433;SDS011;34290;48.562;13.384;2023-05-10T00:04:38;6.60;;;4.73;;
34433;SDS011;34290;48.562;13.384;2023-05-10T00:07:06;8.33;;;5.07;;
34433;SDS011;34290;48.562;13.384;2023-05-10T00:09:33;10.37;;;4.93;;
34433;SDS011;34290;48.562;13.384;2023-05-10T00:12:00;10.43;;;5.00;;
34433;SDS011;34290;48.562;13.384;2023-05-10T00:14:27;8.47;;;5.23;;
34433;SDS011;34290;48.562;13.384;2023-05-10T00:16:54;12.40;;;5.70;;
34433;SDS011;34290;48.562;13.384;2023-05-10T00:19:21;12.27;;;5.70;;
34433;SDS011;34290;48.562;13.384;2023-05-10T00:21:48;8.73;;;4.97;;
34433;SDS011;34290;48.562;13.384;2023-05-10T00:24:17;11.10;;;5.43;;
34433;SDS011;34290;48.562;13.384;2023-05-10T00:26:44;11.57;;;5.87;;
34433;SDS011;34290;48.562;13.384;2023-05-10T00:29:11;10.10;;;6.00;;
34433;SDS011;34290;48.562;13.384;2023-05-10T00:31:38;10.33;;;5.57;;
34433;SDS011;34290;48.562;13.384;2023-05-10T00:34:08;9.30;;;5.37;;
34433;SDS011;34290;48.562;13.384;2023-05-10T00:36:35;8.13;;;4.70;;
34433;SDS011;34290;48.562;13.384;2023-05-10T00:39:02;11.60;;;5.43;;
34433;SDS011;34290;48.562;13.384;2023-05-10T00:41:31;8.53;;;5.00;;
34433;SDS011;34290;48.562;13.384;2023-05-10T00:43:57;8.90;;;5.57;;
34433;SDS011;34290;48.562;13.384;2023-05-10T00:46:25;10.13;;;6.07;;
34433;SDS011;34290;48.562;13.384;2023-05-10T00:48:53;9.33;;;5.97;;
34433;SDS011;34290;48.562;13.384;2023-05-10T00:51:20;12.10;;;6.20;;
34433;SDS011;34290;48.562;13.384;2023-05-10T00:53:47;8.73;;;5.20;;
34433;SDS011;34290;48.562;13.384;2023-05-10T00:56:16;12.10;;;5.73;;
34433;SDS011;34290;48.562;13.384;2023-05-10T00:58:44;10.43;;;5.60;;
34433;SDS011;34290;48.562;13.384;2023-05-10T01:01:11;9.70;;;5.47;;
34433;SDS011;34290;48.562;13.384;2023-05-10T01:03:39;8.90;;;5.47;;
34433;SDS011;34290;48.562;13.384;2023-05-10T01:06:06;12.30;;;5.50;;
34433;SDS011;34290;48.562;13.384;2023-05-10T01:08:35;9.37;;;5.27;;
34433;SDS011;34290;48.562;13.384;2023-05-10T01:11:02;13.47;;;5.73;;
34433;SDS011;34290;48.562;13.384;2023-05-10T01:13:32;9.37;;;5.13;;
34433;SDS011;34290;48.562;13.384;2023-05-10T01:16:04;10.50;;;5.40;;
34433;SDS011;34290;48.562;13.384;2023-05-10T01:18:32;11.63;;;5.97;;
34433;SDS011;34290;48.562;13.384;2023-05-10T01:21:04;9.77;;;5.47;;
34433;SDS011;34290;48.562;13.384;2023-05-10T01:24:03;11.00;;;5.37;;
34433;SDS011;34290;48.562;13.384;2023-05-10T01:30:15;8.43;;;5.17;;
34433;SDS011;34290;48.562;13.384;2023-05-10T01:33:02;10.43;;;5.53;;
34433;SDS011;34290;48.562;13.384;2023-05-10T01:35:37;8.93;;;5.40;;
34433;SDS011;34290;48.562;13.384;2023-05-10T01:38:07;8.70;;;5.40;;
34433;SDS011;34290;48.562;13.384;2023-05-10T01:40:42;9.97;;;5.43;;
34433;SDS011;34290;48.562;13.384;2023-05-10T01:43:17;9.90;;;5.90;;
34433;SDS011;34290;48.562;13.384;2023-05-10T01:45:50;11.03;;;5.93;;
34433;SDS011;34290;48.562;13.384;2023-05-10T01:48:26;11.57;;;5.50;;
34433;SDS011;34290;48.562;13.384;2023-05-10T01:50:54;9.03;;;5.67;;
34433;SDS011;34290;48.562;13.384;2023-05-10T01:53:23;11.70;;;5.93;;
34433;SDS011;34290;48.562;13.384;2023-05-10T01:55:51;11.37;;;6.87;;
34433;SDS011;34290;48.562;13.384;2023-05-10T01:58:21;9.17;;;5.57;;
34433;SDS011;34290;48.562;13.384;2023-05-10T02:00:51;9.10;;;5.37;;
34433;SDS011;34290;48.562;13.384;2023-05-10T02:03:20;10.50;;;5.20;;
34433;SDS011;34290;48.562;13.384;2023-05-10T02:05:52;9.67;;;5.43;;
34433;SDS011;34290;48.562;13.384;2023-05-10T02:08:21;8.35;;;5.32;;
34433;SDS011;34290;48.562;13.384;2023-05-10T02:10:49;10.10;;;5.80;;
34433;SDS011;34290;48.562;13.384;2023-05-10T02:13:17;11.67;;;5.77;;
34433;SDS011;34290;48.562;13.384;2023-05-10T02:15:45;9.18;;;5.80;;
34433;SDS011;34290;48.562;13.384;2023-05-10T02:18:15;8.87;;;5.20;;
34433;SDS011;34290;48.562;13.384;2023-05-10T02:20:43;8.63;;;5.50;;
34433;SDS011;34290;48.562;13.384;2023-05-10T02:23:13;11.30;;;5.20;;
34433;SDS011;34290;48.562;13.384;2023-05-10T02:25:40;9.80;;;5.67;;
34433;SDS011;34290;48.562;13.384;2023-05-10T02:28:09;12.43;;;5.50;;
34433;SDS011;34290;48.562;13.384;2023-05-10T02:30:38;8.40;;;5.40;;
34433;SDS011;34290;48.562;13.384;2023-05-10T02:33:06;12.10;;;5.60;;
34433;SDS011;34290;48.562;13.384;2023-05-10T02:35:33;9.07;;;5.47;;
34433;SDS011;34290;48.562;13.384;2023-05-10T02:38:02;8.03;;;5.20;;
34433;SDS011;34290;48.562;13.384;2023-05-10T02:40:32;9.60;;;5.43;;
34433;SDS011;34290;48.562;13.384;2023-05-10T02:42:59;11.07;;;5.60;;
34433;SDS011;34290;48.562;13.384;2023-05-10T02:45:28;11.40;;;6.07;;
34433;SDS011;34290;48.562;13.384;2023-05-10T02:47:58;9.20;;;5.60;;
34433;SDS011;34290;48.562;13.384;2023-05-10T02:50:27;8.90;;;5.63;;
34433;SDS011;34290;48.562;13.384;2023-05-10T02:52:59;9.83;;;5.73;;
34433;SDS011;34290;48.562;13.384;2023-05-10T02:55:31;10.43;;;5.70;;
34433;SDS011;34290;48.562;13.384;2023-05-10T02:58:03;10.23;;;6.00;;
34433;SDS011;34290;48.562;13.384;2023-05-10T03:00:30;10.83;;;5.63;;
34433;SDS011;34290;48.562;13.384;2023-05-10T03:02:57;10.83;;;6.27;;
34433;SDS011;34290;48.562;13.384;2023-05-10T03:05:24;11.93;;;6.77;;
34433;SDS011;34290;48.562;13.384;2023-05-10T03:07:51;10.87;;;5.87;;
34433;SDS011;34290;48.562;13.384;2023-05-10T03:10:19;10.85;;;5.53;;
34433;SDS011;34290;48.562;13.384;2023-05-10T03:12:55;10.93;;;5.97;;
34433;SDS011;34290;48.562;13.384;2023-05-10T03:15:33;12.03;;;6.40;;
34433;SDS011;34290;48.562;13.384;2023-05-10T03:18:21;13.23;;;5.77;;
34433;SDS011;34290;48.562;13.384;2023-05-10T03:20:49;9.47;;;5.27;;
34433;SDS011;34290;48.562;13.384;2023-05-10T03:23:21;9.87;;;5.97;;
34433;SDS011;34290;48.562;13.384;2023-05-10T03:25:59;9.43;;;5.67;;
34433;SDS011;34290;48.562;13.384;2023-05-10T03:28:29;13.33;;;5.90;;
34433;SDS011;34290;48.562;13.384;2023-05-10T03:30:57;12.50;;;6.80;;
34433;SDS011;34290;48.562;13.384;2023-05-10T03:33:25;9.68;;;5.90;;
34433;SDS011;34290;48.562;13.384;2023-05-10T03:35:52;10.87;;;6.00;;
34433;SDS011;34290;48.562;13.384;2023-05-10T03:38:19;8.20;;;5.40;;
34433;SDS011;34290;48.562;13.384;2023-05-10T03:40:46;9.38;;;5.93;;
34433;SDS011;34290;48.562;13.384;2023-05-10T03:43:13;9.07;;;5.50;;
34433;SDS011;34290;48.562;13.384;2023-05-10T03:45:41;14.97;;;6.13;;
34433;SDS011;34290;48.562;13.384;2023-05-10T03:48:08;12.95;;;5.90;;
34433;SDS011;34290;48.562;13.384;2023-05-10T03:50:35;10.80;;;5.88;;
34433;SDS011;34290;48.562;13.384;2023-05-10T03:53:02;9.70;;;6.07;;
34433;SDS011;34290;48.562;13.384;2023-05-10T03:55:29;11.70;;;6.07;;
34433;SDS011;34290;48.562;13.384;2023-05-10T03:57:59;10.38;;;5.53;;
34433;SDS011;34290;48.562;13.384;2023-05-10T04:00:26;10.43;;;6.07;;
34433;SDS011;34290;48.562;13.384;2023-05-10T04:02:54;9.20;;;4.88;;
34433;SDS011;34290;48.562;13.384;2023-05-10T04:05:21;45.15;;;7.93;;
34433;SDS011;34290;48.562;13.384;2023-05-10T04:07:48;8.43;;;4.95;;
34433;SDS011;34290;48.562;13.384;2023-05-10T04:10:16;8.57;;;5.47;;
34433;SDS011;34290;48.562;13.384;2023-05-10T04:12:43;11.38;;;5.80;;
34433;SDS011;34290;48.562;13.384;2023-05-10T04:15:10;9.18;;;5.38;;
34433;SDS011;34290;48.562;13.384;2023-05-10T04:17:37;10.07;;;5.35;;
34433;SDS011;34290;48.562;13.384;2023-05-10T04:20:06;9.00;;;5.40;;
34433;SDS011;34290;48.562;13.384;2023-05-10T04:22:33;9.47;;;5.40;;
34433;SDS011;34290;48.562;13.384;2023-05-10T04:25:00;10.13;;;5.40;;
34433;SDS011;34290;48.562;13.384;2023-05-10T04:27:27;10.10;;;6.07;;
34433;SDS011;34290;48.562;13.384;2023-05-10T04:29:54;8.55;;;5.10;;
34433;SDS011;34290;48.562;13.384;2023-05-10T04:32:21;9.70;;;5.33;;
34433;SDS011;34290;48.562;13.384;2023-05-10T04:34:48;8.80;;;5.37;;
34433;SDS011;34290;48.562;13.384;2023-05-10T04:37:17;9.50;;;5.40;;
34433;SDS011;34290;48.562;13.384;2023-05-10T04:39:44;9.83;;;5.40;;
34433;SDS011;34290;48.562;13.384;2023-05-10T04:42:11;12.90;;;6.13;;
34433;SDS011;34290;48.562;13.384;2023-05-10T04:44:39;12.00;;;6.10;;
34433;SDS011;34290;48.562;13.384;2023-05-10T04:47:06;11.13;;;5.82;;
34433;SDS011;34290;48.562;13.384;2023-05-10T04:49:33;14.85;;;6.28;;
34433;SDS011;34290;48.562;13.384;2023-05-10T04:52:00;9.73;;;5.88;;
34433;SDS011;34290;48.562;13.384;2023-05-10T04:54:29;17.00;;;6.72;;
34433;SDS011;34290;48.562;13.384;2023-05-10T04:56:56;10.48;;;6.25;;
34433;SDS011;34290;48.562;13.384;2023-05-10T04:59:22;18.90;;;6.88;;
34433;SDS011;34290;48.562;13.384;2023-05-10T05:01:49;15.48;;;7.03;;
34433;SDS011;34290;48.562;13.384;2023-05-10T05:04:16;15.23;;;7.17;;
34433;SDS011;34290;48.562;13.384;2023-05-10T05:06:43;13.93;;;7.07;;
34433;SDS011;34290;48.562;13.384;2023-05-10T05:09:10;19.27;;;7.63;;
34433;SDS011;34290;48.562;13.384;2023-05-10T05:11:39;11.57;;;6.82;;
34433;SDS011;34290;48.562;13.384;2023-05-10T05:14:06;12.88;;;7.35;;
34433;SDS011;34290;48.562;13.384;2023-05-10T05:16:33;13.60;;;8.10;;
34433;SDS011;34290;48.562;13.384;2023-05-10T05:19:00;13.03;;;7.73;;
34433;SDS011;34290;48.562;13.384;2023-05-10T05:21:27;15.00;;;7.53;;
34433;SDS011;34290;48.562;13.384;2023-05-10T05:23:54;14.05;;;8.00;;
34433;SDS011;34290;48.562;13.384;2023-05-10T05:26:21;13.18;;;7.63;;
34433;SDS011;34290;48.562;13.384;2023-05-10T05:28:49;14.48;;;8.10;;
34433;SDS011;34290;48.562;13.384;2023-05-10T05:31:19;13.00;;;7.00;;
34433;SDS011;34290;48.562;13.384;2023-05-10T05:33:46;14.63;;;7.90;;
34433;SDS011;34290;48.562;13.384;2023-05-10T05:36:13;14.32;;;7.18;;
34433;SDS011;34290;48.562;13.384;2023-05-10T05:38:40;16.70;;;6.93;;
34433;SDS011;34290;48.562;13.384;2023-05-10T05:41:08;16.02;;;7.85;;
34433;SDS011;34290;48.562;13.384;2023-05-10T05:43:35;15.20;;;7.18;;
34433;SDS011;34290;48.562;13.384;2023-05-10T05:46:03;14.30;;;6.95;;
34433;SDS011;34290;48.562;13.384;2023-05-10T05:48:30;12.60;;;7.75;;
34433;SDS011;34290;48.562;13.384;2023-05-10T05:50:57;15.07;;;7.55;;
34433;SDS011;34290;48.562;13.384;2023-05-10T05:53:25;17.15;;;8.13;;
34433;SDS011;34290;48.562;13.384;2023-05-10T05:55:52;17.08;;;8.23;;
34433;SDS011;34290;48.562;13.384;2023-05-10T05:58:20;14.40;;;8.00;;
34433;SDS011;34290;48.562;13.384;2023-05-10T06:00:47;18.20;;;8.27;;
34433;SDS011;34290;48.562;13.384;2023-05-10T06:03:15;14.77;;;8.45;;
34433;SDS011;34290;48.562;13.384;2023-05-10T06:05:42;22.27;;;9.98;;
34433;SDS011;34290;48.562;13.384;2023-05-10T06:08:09;22.48;;;9.15;;
34433;SDS011;34290;48.562;13.384;2023-05-10T06:10:36;19.05;;;9.10;;
34433;SDS011;34290;48.562;13.384;2023-05-10T06:13:03;16.13;;;9.15;;
34433;SDS011;34290;48.562;13.384;2023-05-10T06:15:30;21.63;;;8.82;;
34433;SDS011;34290;48.562;13.384;2023-05-10T06:17:57;16.75;;;9.05;;
34433;SDS011;34290;48.562;13.384;2023-05-10T06:20:26;16.95;;;9.05;;
34433;SDS011;34290;48.562;13.384;2023-05-10T06:22:53;17.10;;;9.13;;
34433;SDS011;34290;48.562;13.384;2023-05-10T06:25:20;15.68;;;8.98;;
34433;SDS011;34290;48.562;13.384;2023-05-10T06:27:46;16.73;;;9.20;;
34433;SDS011;34290;48.562;13.384;2023-05-10T06:30:14;23.48;;;9.18;;
34433;SDS011;34290;48.562;13.384;2023-05-10T06:32:41;20.38;;;9.30;;
34433;SDS011;34290;48.562;13.384;2023-05-10T06:35:10;19.45;;;9.55;;
34433;SDS011;34290;48.562;13.384;2023-05-10T06:37:38;19.05;;;10.20;;
34433;SDS011;34290;48.562;13.384;2023-05-10T06:40:06;20.23;;;10.30;;
34433;SDS011;34290;48.562;13.384;2023-05-10T06:42:34;19.45;;;10.25;;
34433;SDS011;34290;48.562;13.384;2023-05-10T06:45:01;22.40;;;10.50;;
34433;SDS011;34290;48.562;13.384;2023-05-10T06:47:28;19.15;;;9.60;;
34433;SDS011;34290;48.562;13.384;2023-05-10T06:49:55;17.50;;;9.48;;
34433;SDS011;34290;48.562;13.384;2023-05-10T06:52:22;22.60;;;10.10;;
34433;SDS011;34290;48.562;13.384;2023-05-10T06:54:50;17.55;;;9.50;;
34433;SDS011;34290;48.562;13.384;2023-05-10T06:57:17;19.70;;;10.15;;
34433;SDS011;34290;48.562;13.384;2023-05-10T06:59:44;18.90;;;9.82;;
34433;SDS011;34290;48.562;13.384;2023-05-10T07:02:11;16.83;;;10.07;;
34433;SDS011;34290;48.562;13.384;2023-05-10T07:04:39;20.08;;;9.63;;
34433;SDS011;34290;48.562;13.384;2023-05-10T07:07:06;17.15;;;9.68;;
34433;SDS011;34290;48.562;13.384;2023-05-10T07:09:34;18.85;;;9.88;;
34433;SDS011;34290;48.562;13.384;2023-05-10T07:12:03;18.08;;;10.13;;
34433;SDS011;34290;48.562;13.384;2023-05-10T07:14:30;18.92;;;10.05;;
34433;SDS011;34290;48.562;13.384;2023-05-10T07:16:57;21.15;;;10.15;;
34433;SDS011;34290;48.562;13.384;2023-05-10T07:19:24;20.13;;;9.88;;
34433;SDS011;34290;48.562;13.384;2023-05-10T07:21:51;16.27;;;9.27;;
34433;SDS011;34290;48.562;13.384;2023-05-10T07:24:18;17.30;;;9.45;;
34433;SDS011;34290;48.562;13.384;2023-05-10T07:26:45;17.38;;;9.27;;
34433;SDS011;34290;48.562;13.384;2023-05-10T07:29:13;20.83;;;9.77;;
34433;SDS011;34290;48.562;13.384;2023-05-10T07:31:40;19.85;;;9.57;;
34433;SDS011;34290;48.562;13.384;2023-05-10T07:34:07;17.42;;;9.88;;
34433;SDS011;34290;48.562;13.384;2023-05-10T07:36:35;16.45;;;10.25;;
34433;SDS011;34290;48.562;13.384;2023-05-10T07:39:02;18.63;;;10.35;;
34433;SDS011;34290;48.562;13.384;2023-05-10T07:41:30;21.65;;;9.95;;
34433;SDS011;34290;48.562;13.384;2023-05-10T07:43:57;22.52;;;10.75;;
34433;SDS011;34290;48.562;13.384;2023-05-10T07:46:25;24.48;;;11.20;;
34433;SDS011;34290;48.562;13.384;2023-05-10T07:48:53;18.98;;;11.10;;
34433;SDS011;34290;48.562;13.384;2023-05-10T07:51:20;21.55;;;11.35;;
34433;SDS011;34290;48.562;13.384;2023-05-10T07:53:47;24.15;;;11.60;;
34433;SDS011;34290;48.562;13.384;2023-05-10T07:56:22;23.08;;;11.32;;
34433;SDS011;34290;48.562;13.384;2023-05-10T07:58:52;20.85;;;11.27;;
34433;SDS011;34290;48.562;13.384;2023-05-10T08:01:20;24.55;;;12.00;;
34433;SDS011;34290;48.562;13.384;2023-05-10T08:03:48;22.38;;;11.55;;
34433;SDS011;34290;48.562;13.384;2023-05-10T08:06:18;24.33;;;12.13;;
34433;SDS011;34290;48.562;13.384;2023-05-10T08:08:45;23.55;;;11.50;;
34433;SDS011;34290;48.562;13.384;2023-05-10T08:11:15;19.70;;;11.45;;
34433;SDS011;34290;48.562;13.384;2023-05-10T08:13:42;21.45;;;11.45;;
34433;SDS011;34290;48.562;13.384;2023-05-10T08:16:09;26.90;;;12.25;;
34433;SDS011;34290;48.562;13.384;2023-05-10T08:18:36;23.40;;;11.05;;
34433;SDS011;34290;48.562;13.384;2023-05-10T08:21:05;20.83;;;11.48;;
34433;SDS011;34290;48.562;13.384;2023-05-10T08:23:32;21.13;;;11.18;;
34433;SDS011;34290;48.562;13.384;2023-05-10T08:25:59;19.40;;;10.32;;
34433;SDS011;34290;48.562;13.384;2023-05-10T08:28:26;20.50;;;11.25;;
34433;SDS011;34290;48.562;13.384;2023-05-10T08:30:53;21.10;;;11.02;;
34433;SDS011;34290;48.562;13.384;2023-05-10T08:33:20;22.27;;;11.90;;
34433;SDS011;34290;48.562;13.384;2023-05-10T08:35:47;18.60;;;11.93;;
34433;SDS011;34290;48.562;13.384;2023-05-10T08:38:16;19.60;;;11.40;;
34433;SDS011;34290;48.562;13.384;2023-05-10T08:40:44;20.17;;;10.93;;
34433;SDS011;34290;48.562;13.384;2023-05-10T08:43:12;18.88;;;11.32;;
34433;SDS011;34290;48.562;13.384;2023-05-10T08:45:41;19.77;;;11.10;;
34433;SDS011;34290;48.562;13.384;2023-05-10T08:48:10;19.75;;;10.73;;
34433;SDS011;34290;48.562;13.384;2023-05-10T08:50:38;19.70;;;10.88;;
34433;SDS011;34290;48.562;13.384;2023-05-10T08:53:06;20.73;;;11.10;;
34433;SDS011;34290;48.562;13.384;2023-05-10T08:55:37;21.60;;;11.38;;
34433;SDS011;34290;48.562;13.384;2023-05-10T08:58:07;19.10;;;11.50;;
34433;SDS011;34290;48.562;13.384;2023-05-10T09:00:35;20.80;;;11.77;;
34433;SDS011;34290;48.562;13.384;2023-05-10T09:03:04;23.02;;;11.77;;
34433;SDS011;34290;48.562;13.384;2023-05-10T09:05:32;18.25;;;11.35;;
34433;SDS011;34290;48.562;13.384;2023-05-10T09:07:59;20.10;;;11.38;;
34433;SDS011;34290;48.562;13.384;2023-05-10T09:10:26;20.40;;;10.68;;
34433;SDS011;34290;48.562;13.384;2023-05-10T09:12:57;20.48;;;11.02;;
34433;SDS011;34290;48.562;13.384;2023-05-10T09:15:25;18.10;;;10.88;;
34433;SDS011;34290;48.562;13.384;2023-05-10T09:17:52;22.95;;;11.40;;
34433;SDS011;34290;48.562;13.384;2023-05-10T09:20:24;21.27;;;11.52;;
34433;SDS011;34290;48.562;13.384;2023-05-10T09:22:51;19.85;;;11.10;;
34433;SDS011;34290;48.562;13.384;2023-05-10T09:25:18;22.08;;;11.07;;
34433;SDS011;34290;48.562;13.384;2023-05-10T09:27:45;20.23;;;11.55;;
34433;SDS011;34290;48.562;13.384;2023-05-10T09:30:16;20.27;;;11.23;;
34433;SDS011;34290;48.562;13.384;2023-05-10T09:32:49;19.15;;;10.13;;
34433;SDS011;34290;48.562;13.384;2023-05-10T09:35:17;17.77;;;9.52;;
34433;SDS011;34290;48.562;13.384;2023-05-10T09:37:48;19.27;;;9.80;;
34433;SDS011;34290;48.562;13.384;2023-05-10T09:40:16;17.58;;;9.52;;
34433;SDS011;34290;48.562;13.384;2023-05-10T09:42:50;14.35;;;8.85;;
34433;SDS011;34290;48.562;13.384;2023-05-10T09:45:20;14.27;;;8.50;;
34433;SDS011;34290;48.562;13.384;2023-05-10T09:47:48;14.80;;;8.02;;
34433;SDS011;34290;48.562;13.384;2023-05-10T09:50:15;11.85;;;7.50;;
34433;SDS011;34290;48.562;13.384;2023-05-10T09:52:46;10.38;;;6.93;;
34433;SDS011;34290;48.562;13.384;2023-05-10T09:55:14;9.23;;;6.03;;
34433;SDS011;34290;48.562;13.384;2023-05-10T09:57:42;9.27;;;5.85;;
34433;SDS011;34290;48.562;13.384;2023-05-10T10:00:09;9.32;;;6.22;;
34433;SDS011;34290;48.562;13.384;2023-05-10T10:02:43;9.68;;;6.30;;
34433;SDS011;34290;48.562;13.384;2023-05-10T10:05:12;8.13;;;5.55;;
34433;SDS011;34290;48.562;13.384;2023-05-10T10:07:40;8.88;;;5.47;;
34433;SDS011;34290;48.562;13.384;2023-05-10T10:10:08;9.38;;;5.70;;
34433;SDS011;34290;48.562;13.384;2023-05-10T10:12:38;10.05;;;5.80;;
34433;SDS011;34290;48.562;13.384;2023-05-10T10:15:07;6.47;;;4.72;;
34433;SDS011;34290;48.562;13.384;2023-05-10T10:17:35;7.68;;;4.80;;
34433;SDS011;34290;48.562;13.384;2023-05-10T10:20:06;7.53;;;5.05;;
34433;SDS011;34290;48.562;13.384;2023-05-10T10:22:36;7.55;;;5.32;;
34433;SDS011;34290;48.562;13.384;2023-05-10T10:25:04;8.25;;;5.70;;
34433;SDS011;34290;48.562;13.384;2023-05-10T10:27:34;7.38;;;4.80;;
34433;SDS011;34290;48.562;13.384;2023-05-10T10:30:13;7.80;;;5.43;;
34433;SDS011;34290;48.562;13.384;2023-05-10T10:32:55;8.80;;;6.00;;
34433;SDS011;34290;48.562;13.384;2023-05-10T10:35:35;9.15;;;5.70;;
34433;SDS011;34290;48.562;13.384;2023-05-10T10:38:03;8.13;;;5.20;;
34433;SDS011;34290;48.562;13.384;2023-05-10T10:40:31;9.00;;;5.63;;
34433;SDS011;34290;48.562;13.384;2023-05-10T10:43:20;7.28;;;5.05;;
34433;SDS011;34290;48.562;13.384;2023-05-10T10:45:48;8.52;;;5.47;;
34433;SDS011;34290;48.562;13.384;2023-05-10T10:48:36;6.97;;;4.72;;
34433;SDS011;34290;48.562;13.384;2023-05-10T10:51:05;7.72;;;4.72;;
34433;SDS011;34290;48.562;13.384;2023-05-10T10:53:32;6.30;;;4.60;;
34433;SDS011;34290;48.562;13.384;2023-05-10T10:56:02;8.25;;;5.38;;
34433;SDS011;34290;48.562;13.384;2023-05-10T10:58:34;6.57;;;4.93;;
34433;SDS011;34290;48.562;13.384;2023-05-10T11:06:46;8.10;;;5.00;;
34433;SDS011;34290;48.562;13.384;2023-05-10T11:09:13;9.90;;;5.50;;
34433;SDS011;34290;48.562;13.384;2023-05-10T11:11:51;8.07;;;5.68;;
34433;SDS011;34290;48.562;13.384;2023-05-10T11:14:20;9.25;;;5.97;;
34433;SDS011;34290;48.562;13.384;2023-05-10T11:16:48;10.65;;;6.00;;
34433;SDS011;34290;48.562;13.384;2023-05-10T11:19:15;10.50;;;5.85;;
34433;SDS011;34290;48.562;13.384;2023-05-10T11:21:48;9.95;;;6.32;;
34433;SDS011;34290;48.562;13.384;2023-05-10T11:24:17;9.43;;;6.07;;
34433;SDS011;34290;48.562;13.384;2023-05-10T11:26:45;9.90;;;6.32;;
34433;SDS011;34290;48.562;13.384;2023-05-10T11:29:12;12.77;;;6.18;;
34433;SDS011;34290;48.562;13.384;2023-05-10T11:31:42;9.68;;;6.20;;
34433;SDS011;34290;48.562;13.384;2023-05-10T11:34:12;9.98;;;6.00;;
34433;SDS011;34290;48.562;13.384;2023-05-10T11:36:52;8.45;;;5.63;;
34433;SDS011;34290;48.562;13.384;2023-05-10T11:39:20;11.35;;;5.18;;
34433;SDS011;34290;48.562;13.384;2023-05-10T11:41:48;7.32;;;5.07;;
34433;SDS011;34290;48.562;13.384;2023-05-10T11:44:15;8.05;;;5.57;;
34433;SDS011;34290;48.562;13.384;2023-05-10T11:46:42;8.38;;;5.78;;
34433;SDS011;34290;48.562;13.384;2023-05-10T11:49:09;7.88;;;5.43;;
34433;SDS011;34290;48.562;13.384;2023-05-10T11:51:38;9.98;;;5.57;;
34433;SDS011;34290;48.562;13.384;2023-05-10T11:54:09;7.30;;;5.38;;
34433;SDS011;34290;48.562;13.384;2023-05-10T11:56:37;9.45;;;6.10;;
34433;SDS011;34290;48.562;13.384;2023-05-10T11:59:04;10.57;;;6.18;;
34433;SDS011;34290;48.562;13.384;2023-05-10T12:01:31;10.13;;;6.13;;
34433;SDS011;34290;48.562;13.384;2023-05-10T12:03:58;8.48;;;6.07;;
34433;SDS011;34290;48.562;13.384;2023-05-10T12:06:26;8.65;;;5.65;;
34433;SDS011;34290;48.562;13.384;2023-05-10T12:08:56;7.88;;;5.60;;
34433;SDS011;34290;48.562;13.384;2023-05-10T12:11:25;9.73;;;5.80;;
34433;SDS011;34290;48.562;13.384;2023-05-10T12:13:54;8.70;;;5.88;;
34433;SDS011;34290;48.562;13.384;2023-05-10T12:16:22;8.60;;;5.28;;
34433;SDS011;34290;48.562;13.384;2023-05-10T12:18:50;8.05;;;5.40;;
34433;SDS011;34290;48.562;13.384;2023-05-10T12:21:18;10.88;;;5.85;;
34433;SDS011;34290;48.562;13.384;2023-05-10T12:23:46;8.00;;;5.50;;
34433;SDS011;34290;48.562;13.384;2023-05-10T12:26:16;8.45;;;5.85;;
34433;SDS011;34290;48.562;13.384;2023-05-10T12:28:45;9.30;;;5.20;;
34433;SDS011;34290;48.562;13.384;2023-05-10T12:31:12;10.40;;;6.40;;
34433;SDS011;34290;48.562;13.384;2023-05-10T12:33:40;7.38;;;5.40;;
34433;SDS011;34290;48.562;13.384;2023-05-10T12:36:09;8.82;;;5.25;;
34433;SDS011;34290;48.562;13.384;2023-05-10T12:38:37;8.25;;;5.50;;
34433;SDS011;34290;48.562;13.384;2023-05-10T12:41:07;6.82;;;4.65;;
34433;SDS011;34290;48.562;13.384;2023-05-10T12:43:35;7.45;;;4.93;;
34433;SDS011;34290;48.562;13.384;2023-05-10T12:46:05;8.63;;;5.28;;
34433;SDS011;34290;48.562;13.384;2023-05-10T12:48:33;8.07;;;5.35;;
34433;SDS011;34290;48.562;13.384;2023-05-10T12:51:00;7.28;;;5.30;;
34433;SDS011;34290;48.562;13.384;2023-05-10T12:53:27;7.68;;;5.05;;
34433;SDS011;34290;48.562;13.384;2023-05-10T12:55:54;10.60;;;5.68;;
34433;SDS011;34290;48.562;13.384;2023-05-10T12:58:21;8.10;;;5.30;;
34433;SDS011;34290;48.562;13.384;2023-05-10T13:00:49;9.13;;;5.20;;
34433;SDS011;34290;48.562;13.384;2023-05-10T13:03:19;8.02;;;4.90;;
34433;SDS011;34290;48.562;13.384;2023-05-10T13:05:46;6.93;;;5.00;;
34433;SDS011;34290;48.562;13.384;2023-05-10T13:08:13;7.68;;;4.47;;
34433;SDS011;34290;48.562;13.384;2023-05-10T13:10:40;8.82;;;4.75;;
34433;SDS011;34290;48.562;13.384;2023-05-10T13:13:07;6.75;;;4.93;;
34433;SDS011;34290;48.562;13.384;2023-05-10T13:15:34;7.63;;;5.07;;
34433;SDS011;34290;48.562;13.384;2023-05-10T13:18:01;6.75;;;4.70;;
34433;SDS011;34290;48.562;13.384;2023-05-10T13:20:30;7.40;;;5.13;;
34433;SDS011;34290;48.562;13.384;2023-05-10T13:22:57;8.63;;;5.53;;
34433;SDS011;34290;48.562;13.384;2023-05-10T13:25:24;8.13;;;4.80;;
34433;SDS011;34290;48.562;13.384;2023-05-10T13:27:51;6.70;;;4.40;;
34433;SDS011;34290;48.562;13.384;2023-05-10T13:30:18;8.10;;;4.60;;
34433;SDS011;34290;48.562;13.384;2023-05-10T13:32:48;6.53;;;4.60;;
34433;SDS011;34290;48.562;13.384;2023-05-10T13:35:16;6.40;;;3.97;;
34433;SDS011;34290;48.562;13.384;2023-05-10T13:37:44;6.72;;;3.95;;
34433;SDS011;34290;48.562;13.384;2023-05-10T13:40:11;5.07;;;3.45;;
34433;SDS011;34290;48.562;13.384;2023-05-10T13:42:38;5.45;;;3.40;;
34433;SDS011;34290;48.562;13.384;2023-05-10T13:45:06;4.05;;;3.08;;
34433;SDS011;34290;48.562;13.384;2023-05-10T13:47:33;7.68;;;2.85;;
34433;SDS011;34290;48.562;13.384;2023-05-10T13:50:00;3.20;;;2.40;;
34433;SDS011;34290;48.562;13.384;2023-05-10T13:52:28;4.20;;;2.50;;
34433;SDS011;34290;48.562;13.384;2023-05-10T13:54:56;3.95;;;2.33;;
34433;SDS011;34290;48.562;13.384;2023-05-10T13:57:23;3.40;;;2.40;;
34433;SDS011;34290;48.562;13.384;2023-05-10T13:59:51;2.80;;;2.30;;
34433;SDS011;34290;48.562;13.384;2023-05-10T14:02:18;2.67;;;2.13;;
34433;SDS011;34290;48.562;13.384;2023-05-10T14:04:45;4.13;;;2.08;;
34433;SDS011;34290;48.562;13.384;2023-05-10T14:07:13;2.70;;;2.15;;
34433;SDS011;34290;48.562;13.384;2023-05-10T14:09:40;4.88;;;2.22;;
34433;SDS011;34290;48.562;13.384;2023-05-10T14:12:08;4.63;;;2.60;;
34433;SDS011;34290;48.562;13.384;2023-05-10T14:14:35;4.30;;;2.80;;
34433;SDS011;34290;48.562;13.384;2023-05-10T14:17:02;4.82;;;2.88;;
34433;SDS011;34290;48.562;13.384;2023-05-10T14:19:29;6.95;;;2.95;;
34433;SDS011;34290;48.562;13.384;2023-05-10T14:21:57;4.20;;;2.80;;
34433;SDS011;34290;48.562;13.384;2023-05-10T14:24:24;5.10;;;2.85;;
34433;SDS011;34290;48.562;13.384;2023-05-10T14:26:51;3.60;;;2.45;;
34433;SDS011;34290;48.562;13.384;2023-05-10T14:29:20;3.15;;;2.22;;
34433;SDS011;34290;48.562;13.384;2023-05-10T14:31:47;3.47;;;2.47;;
34433;SDS011;34290;48.562;13.384;2023-05-10T14:34:14;2.72;;;2.30;;
34433;SDS011;34290;48.562;13.384;2023-05-10T14:36:41;3.55;;;2.42;;
34433;SDS011;34290;48.562;13.384;2023-05-10T14:39:08;3.22;;;2.30;;
34433;SDS011;34290;48.562;13.384;2023-05-10T14:41:37;3.97;;;2.80;;
34433;SDS011;34290;48.562;13.384;2023-05-10T14:44:08;4.30;;;3.08;;